sensor_id;sensor_type;location;lat;lon;timestamp;P1;durP1;ratioP1;P2;durP2;ratioP2
76336;SDS011;65157;50.082;18.178;2022-12-18T00:01:41;16.90;;;5.90;;
76336;SDS011;65157;50.082;18.178;2022-12-18T00:04:05;20.20;;;6.30;;
76336;SDS011;65157;50.082;18.178;2022-12-18T00:06:34;22.40;;;7.90;;
76336;SDS011;65157;50.082;18.178;2022-12-18T00:11:29;14.30;;;5.10;;
76336;SDS011;65157;50.082;18.178;2022-12-18T00:13:58;28.70;;;7.60;;
76336;SDS011;65157;50.082;18.178;2022-12-18T00:16:26;17.20;;;5.80;;
76336;SDS011;65157;50.082;18.178;2022-12-18T00:18:55;32.00;;;8.70;;
76336;SDS011;65157;50.082;18.178;2022-12-18T00:21:24;34.00;;;10.90;;
76336;SDS011;65157;50.082;18.178;2022-12-18T00:23:51;22.80;;;7.80;;
76336;SDS011;65157;50.082;18.178;2022-12-18T00:26:22;13.30;;;3.60;;
76336;SDS011;65157;50.082;18.178;2022-12-18T00:28:51;13.00;;;4.60;;
76336;SDS011;65157;50.082;18.178;2022-12-18T00:31:20;19.60;;;7.10;;
76336;SDS011;65157;50.082;18.178;2022-12-18T00:33:48;24.50;;;8.50;;
76336;SDS011;65157;50.082;18.178;2022-12-18T00:36:16;12.60;;;5.00;;
76336;SDS011;65157;50.082;18.178;2022-12-18T00:38:45;8.70;;;2.60;;
76336;SDS011;65157;50.082;18.178;2022-12-18T00:41:13;38.00;;;9.50;;
76336;SDS011;65157;50.082;18.178;2022-12-18T00:44:01;26.80;;;8.10;;
76336;SDS011;65157;50.082;18.178;2022-12-18T00:46:28;29.50;;;9.00;;
76336;SDS011;65157;50.082;18.178;2022-12-18T00:48:55;32.40;;;9.90;;
76336;SDS011;65157;50.082;18.178;2022-12-18T00:51:22;31.90;;;10.10;;
76336;SDS011;65157;50.082;18.178;2022-12-18T00:53:50;31.40;;;10.80;;
76336;SDS011;65157;50.082;18.178;2022-12-18T00:56:18;32.40;;;9.90;;
76336;SDS011;65157;50.082;18.178;2022-12-18T00:58:44;27.10;;;9.10;;
76336;SDS011;65157;50.082;18.178;2022-12-18T01:01:11;28.40;;;8.20;;
76336;SDS011;65157;50.082;18.178;2022-12-18T01:03:37;23.20;;;6.90;;
76336;SDS011;65157;50.082;18.178;2022-12-18T01:06:08;22.20;;;6.90;;
76336;SDS011;65157;50.082;18.178;2022-12-18T01:08:36;19.50;;;6.70;;
76336;SDS011;65157;50.082;18.178;2022-12-18T01:11:13;20.60;;;6.60;;
76336;SDS011;65157;50.082;18.178;2022-12-18T01:13:42;34.50;;;8.50;;
76336;SDS011;65157;50.082;18.178;2022-12-18T01:16:13;35.90;;;9.30;;
76336;SDS011;65157;50.082;18.178;2022-12-18T01:18:42;25.50;;;8.90;;
76336;SDS011;65157;50.082;18.178;2022-12-18T01:21:10;28.70;;;9.10;;
76336;SDS011;65157;50.082;18.178;2022-12-18T01:23:39;28.80;;;9.00;;
76336;SDS011;65157;50.082;18.178;2022-12-18T01:26:07;27.30;;;9.00;;
76336;SDS011;65157;50.082;18.178;2022-12-18T01:28:35;25.50;;;9.10;;
76336;SDS011;65157;50.082;18.178;2022-12-18T01:31:16;25.50;;;9.10;;
76336;SDS011;65157;50.082;18.178;2022-12-18T01:33:43;21.30;;;7.50;;
76336;SDS011;65157;50.082;18.178;2022-12-18T01:36:14;21.80;;;7.00;;
76336;SDS011;65157;50.082;18.178;2022-12-18T01:38:52;21.80;;;7.20;;
76336;SDS011;65157;50.082;18.178;2022-12-18T01:41:21;22.30;;;6.60;;
76336;SDS011;65157;50.082;18.178;2022-12-18T01:46:19;22.10;;;7.10;;
76336;SDS011;65157;50.082;18.178;2022-12-18T01:48:56;18.70;;;7.00;;
76336;SDS011;65157;50.082;18.178;2022-12-18T01:53:53;39.90;;;9.10;;
76336;SDS011;65157;50.082;18.178;2022-12-18T01:56:20;17.70;;;6.60;;
76336;SDS011;65157;50.082;18.178;2022-12-18T01:58:54;27.00;;;8.00;;
76336;SDS011;65157;50.082;18.178;2022-12-18T02:01:25;23.30;;;7.10;;
76336;SDS011;65157;50.082;18.178;2022-12-18T02:03:53;23.80;;;7.10;;
76336;SDS011;65157;50.082;18.178;2022-12-18T02:06:37;19.00;;;6.90;;
76336;SDS011;65157;50.082;18.178;2022-12-18T02:09:11;23.60;;;7.00;;
76336;SDS011;65157;50.082;18.178;2022-12-18T02:12:04;22.00;;;7.20;;
76336;SDS011;65157;50.082;18.178;2022-12-18T02:17:14;23.20;;;7.20;;
76336;SDS011;65157;50.082;18.178;2022-12-18T02:28:25;18.40;;;6.30;;
76336;SDS011;65157;50.082;18.178;2022-12-18T02:30:56;23.50;;;7.60;;
76336;SDS011;65157;50.082;18.178;2022-12-18T02:33:27;39.00;;;9.80;;
76336;SDS011;65157;50.082;18.178;2022-12-18T02:35:57;34.80;;;9.10;;
76336;SDS011;65157;50.082;18.178;2022-12-18T02:38:26;31.40;;;10.40;;
76336;SDS011;65157;50.082;18.178;2022-12-18T02:40:55;26.70;;;8.70;;
76336;SDS011;65157;50.082;18.178;2022-12-18T02:43:23;25.70;;;9.10;;
76336;SDS011;65157;50.082;18.178;2022-12-18T02:45:50;27.00;;;7.70;;
76336;SDS011;65157;50.082;18.178;2022-12-18T02:48:22;26.50;;;8.10;;
76336;SDS011;65157;50.082;18.178;2022-12-18T02:50:58;26.30;;;8.80;;
76336;SDS011;65157;50.082;18.178;2022-12-18T02:53:39;26.90;;;9.20;;
76336;SDS011;65157;50.082;18.178;2022-12-18T02:56:35;29.20;;;9.10;;
76336;SDS011;65157;50.082;18.178;2022-12-18T02:59:09;25.00;;;9.30;;
76336;SDS011;65157;50.082;18.178;2022-12-18T03:04:13;28.80;;;8.70;;
76336;SDS011;65157;50.082;18.178;2022-12-18T03:06:48;26.20;;;8.50;;
76336;SDS011;65157;50.082;18.178;2022-12-18T03:09:21;28.10;;;9.70;;
76336;SDS011;65157;50.082;18.178;2022-12-18T03:11:55;25.40;;;10.40;;
76336;SDS011;65157;50.082;18.178;2022-12-18T03:14:43;37.10;;;11.20;;
76336;SDS011;65157;50.082;18.178;2022-12-18T03:17:16;33.10;;;10.90;;
76336;SDS011;65157;50.082;18.178;2022-12-18T03:19:46;31.50;;;10.00;;
76336;SDS011;65157;50.082;18.178;2022-12-18T03:22:16;26.90;;;9.40;;
76336;SDS011;65157;50.082;18.178;2022-12-18T03:24:43;27.60;;;9.40;;
76336;SDS011;65157;50.082;18.178;2022-12-18T03:27:12;27.60;;;8.50;;
76336;SDS011;65157;50.082;18.178;2022-12-18T03:29:44;23.20;;;8.60;;
76336;SDS011;65157;50.082;18.178;2022-12-18T03:32:15;27.80;;;8.40;;
76336;SDS011;65157;50.082;18.178;2022-12-18T03:34:58;25.30;;;9.60;;
76336;SDS011;65157;50.082;18.178;2022-12-18T03:37:30;30.30;;;9.40;;
76336;SDS011;65157;50.082;18.178;2022-12-18T03:39:56;28.60;;;9.90;;
76336;SDS011;65157;50.082;18.178;2022-12-18T03:42:32;33.80;;;10.50;;
76336;SDS011;65157;50.082;18.178;2022-12-18T03:45:14;28.80;;;9.00;;
76336;SDS011;65157;50.082;18.178;2022-12-18T03:55:37;22.20;;;8.00;;
76336;SDS011;65157;50.082;18.178;2022-12-18T03:58:05;26.10;;;9.80;;
76336;SDS011;65157;50.082;18.178;2022-12-18T04:00:34;22.30;;;7.50;;
76336;SDS011;65157;50.082;18.178;2022-12-18T04:03:01;25.50;;;8.50;;
76336;SDS011;65157;50.082;18.178;2022-12-18T04:05:30;25.30;;;8.60;;
76336;SDS011;65157;50.082;18.178;2022-12-18T04:08:00;21.60;;;7.50;;
76336;SDS011;65157;50.082;18.178;2022-12-18T04:10:27;25.10;;;8.50;;
76336;SDS011;65157;50.082;18.178;2022-12-18T04:12:57;25.00;;;9.00;;
76336;SDS011;65157;50.082;18.178;2022-12-18T04:15:24;20.80;;;8.30;;
76336;SDS011;65157;50.082;18.178;2022-12-18T04:17:51;24.90;;;9.30;;
76336;SDS011;65157;50.082;18.178;2022-12-18T04:20:17;20.40;;;8.00;;
76336;SDS011;65157;50.082;18.178;2022-12-18T04:22:44;26.40;;;7.70;;
76336;SDS011;65157;50.082;18.178;2022-12-18T04:25:12;21.40;;;8.10;;
76336;SDS011;65157;50.082;18.178;2022-12-18T04:27:38;26.60;;;8.30;;
76336;SDS011;65157;50.082;18.178;2022-12-18T04:30:05;33.80;;;10.20;;
76336;SDS011;65157;50.082;18.178;2022-12-18T04:35:00;26.90;;;9.00;;
76336;SDS011;65157;50.082;18.178;2022-12-18T04:37:27;29.10;;;8.50;;
76336;SDS011;65157;50.082;18.178;2022-12-18T04:39:54;26.10;;;8.10;;
76336;SDS011;65157;50.082;18.178;2022-12-18T04:42:20;25.10;;;8.20;;
76336;SDS011;65157;50.082;18.178;2022-12-18T04:44:47;20.80;;;7.80;;
76336;SDS011;65157;50.082;18.178;2022-12-18T04:47:14;24.60;;;8.40;;
76336;SDS011;65157;50.082;18.178;2022-12-18T04:49:40;25.60;;;8.00;;
76336;SDS011;65157;50.082;18.178;2022-12-18T04:52:07;24.90;;;7.40;;
76336;SDS011;65157;50.082;18.178;2022-12-18T04:54:34;27.30;;;8.10;;
76336;SDS011;65157;50.082;18.178;2022-12-18T04:57:00;27.90;;;7.80;;
76336;SDS011;65157;50.082;18.178;2022-12-18T04:59:27;22.70;;;7.10;;
76336;SDS011;65157;50.082;18.178;2022-12-18T05:01:54;24.40;;;8.10;;
76336;SDS011;65157;50.082;18.178;2022-12-18T05:04:20;26.40;;;8.30;;
76336;SDS011;65157;50.082;18.178;2022-12-18T05:06:47;21.30;;;7.70;;
76336;SDS011;65157;50.082;18.178;2022-12-18T05:09:14;30.50;;;8.90;;
76336;SDS011;65157;50.082;18.178;2022-12-18T05:11:40;37.10;;;11.00;;
76336;SDS011;65157;50.082;18.178;2022-12-18T05:14:07;28.80;;;9.30;;
76336;SDS011;65157;50.082;18.178;2022-12-18T05:16:34;23.20;;;8.30;;
76336;SDS011;65157;50.082;18.178;2022-12-18T05:19:00;25.10;;;8.30;;
76336;SDS011;65157;50.082;18.178;2022-12-18T05:21:27;22.30;;;8.20;;
76336;SDS011;65157;50.082;18.178;2022-12-18T05:23:53;23.60;;;8.10;;
76336;SDS011;65157;50.082;18.178;2022-12-18T05:26:20;29.00;;;8.20;;
76336;SDS011;65157;50.082;18.178;2022-12-18T05:28:47;22.30;;;8.40;;
76336;SDS011;65157;50.082;18.178;2022-12-18T05:31:14;25.90;;;8.20;;
76336;SDS011;65157;50.082;18.178;2022-12-18T05:33:41;23.60;;;8.00;;
76336;SDS011;65157;50.082;18.178;2022-12-18T05:36:08;21.80;;;7.40;;
76336;SDS011;65157;50.082;18.178;2022-12-18T05:38:36;21.30;;;8.50;;
76336;SDS011;65157;50.082;18.178;2022-12-18T05:41:05;27.90;;;8.60;;
76336;SDS011;65157;50.082;18.178;2022-12-18T05:43:36;25.00;;;7.80;;
76336;SDS011;65157;50.082;18.178;2022-12-18T05:46:08;26.80;;;9.70;;
76336;SDS011;65157;50.082;18.178;2022-12-18T05:48:39;25.10;;;8.50;;
76336;SDS011;65157;50.082;18.178;2022-12-18T05:51:07;26.10;;;7.80;;
76336;SDS011;65157;50.082;18.178;2022-12-18T05:53:36;24.80;;;8.20;;
76336;SDS011;65157;50.082;18.178;2022-12-18T05:56:05;19.90;;;7.20;;
76336;SDS011;65157;50.082;18.178;2022-12-18T05:58:37;20.80;;;7.00;;
76336;SDS011;65157;50.082;18.178;2022-12-18T06:01:09;25.50;;;7.40;;
76336;SDS011;65157;50.082;18.178;2022-12-18T06:03:44;22.20;;;6.20;;
76336;SDS011;65157;50.082;18.178;2022-12-18T06:08:42;24.90;;;8.30;;
76336;SDS011;65157;50.082;18.178;2022-12-18T06:11:08;22.40;;;8.00;;
76336;SDS011;65157;50.082;18.178;2022-12-18T06:13:35;26.30;;;7.90;;
76336;SDS011;65157;50.082;18.178;2022-12-18T06:16:04;20.80;;;7.40;;
76336;SDS011;65157;50.082;18.178;2022-12-18T06:18:32;25.10;;;7.70;;
76336;SDS011;65157;50.082;18.178;2022-12-18T06:20:59;32.80;;;10.60;;
76336;SDS011;65157;50.082;18.178;2022-12-18T06:23:26;34.30;;;10.70;;
76336;SDS011;65157;50.082;18.178;2022-12-18T06:25:53;27.10;;;9.20;;
76336;SDS011;65157;50.082;18.178;2022-12-18T06:28:20;26.60;;;8.20;;
76336;SDS011;65157;50.082;18.178;2022-12-18T06:30:47;23.30;;;8.10;;
76336;SDS011;65157;50.082;18.178;2022-12-18T06:33:15;24.50;;;8.40;;
76336;SDS011;65157;50.082;18.178;2022-12-18T06:35:42;21.10;;;7.50;;
76336;SDS011;65157;50.082;18.178;2022-12-18T06:38:09;23.90;;;7.70;;
76336;SDS011;65157;50.082;18.178;2022-12-18T06:40:36;30.50;;;9.00;;
76336;SDS011;65157;50.082;18.178;2022-12-18T06:43:05;24.10;;;8.20;;
76336;SDS011;65157;50.082;18.178;2022-12-18T06:45:32;25.20;;;8.10;;
76336;SDS011;65157;50.082;18.178;2022-12-18T06:48:00;21.80;;;7.00;;
76336;SDS011;65157;50.082;18.178;2022-12-18T06:50:26;31.20;;;9.60;;
76336;SDS011;65157;50.082;18.178;2022-12-18T06:52:53;28.10;;;8.60;;
76336;SDS011;65157;50.082;18.178;2022-12-18T06:55:20;25.00;;;8.30;;
76336;SDS011;65157;50.082;18.178;2022-12-18T06:57:46;23.10;;;7.70;;
76336;SDS011;65157;50.082;18.178;2022-12-18T07:00:13;20.50;;;7.10;;
76336;SDS011;65157;50.082;18.178;2022-12-18T07:02:40;24.70;;;8.90;;
76336;SDS011;65157;50.082;18.178;2022-12-18T07:05:07;21.90;;;7.00;;
76336;SDS011;65157;50.082;18.178;2022-12-18T07:07:34;21.50;;;7.20;;
76336;SDS011;65157;50.082;18.178;2022-12-18T07:10:01;21.30;;;7.30;;
76336;SDS011;65157;50.082;18.178;2022-12-18T07:12:29;19.50;;;7.30;;
76336;SDS011;65157;50.082;18.178;2022-12-18T07:14:55;24.10;;;7.50;;
76336;SDS011;65157;50.082;18.178;2022-12-18T07:17:22;23.90;;;7.70;;
76336;SDS011;65157;50.082;18.178;2022-12-18T07:19:49;22.40;;;7.50;;
76336;SDS011;65157;50.082;18.178;2022-12-18T07:22:15;24.10;;;8.30;;
76336;SDS011;65157;50.082;18.178;2022-12-18T07:24:42;35.30;;;10.60;;
76336;SDS011;65157;50.082;18.178;2022-12-18T07:27:09;30.50;;;9.20;;
76336;SDS011;65157;50.082;18.178;2022-12-18T07:29:35;27.70;;;8.40;;
76336;SDS011;65157;50.082;18.178;2022-12-18T07:32:03;23.60;;;7.20;;
76336;SDS011;65157;50.082;18.178;2022-12-18T07:34:29;18.60;;;7.20;;
76336;SDS011;65157;50.082;18.178;2022-12-18T07:36:56;21.60;;;7.30;;
76336;SDS011;65157;50.082;18.178;2022-12-18T07:39:23;24.10;;;8.20;;
76336;SDS011;65157;50.082;18.178;2022-12-18T07:41:50;23.50;;;8.60;;
76336;SDS011;65157;50.082;18.178;2022-12-18T07:44:35;20.50;;;6.60;;
76336;SDS011;65157;50.082;18.178;2022-12-18T07:47:02;22.30;;;7.30;;
76336;SDS011;65157;50.082;18.178;2022-12-18T07:49:29;23.10;;;6.60;;
76336;SDS011;65157;50.082;18.178;2022-12-18T07:51:56;21.50;;;7.00;;
76336;SDS011;65157;50.082;18.178;2022-12-18T07:54:24;19.50;;;6.10;;
76336;SDS011;65157;50.082;18.178;2022-12-18T07:56:51;22.40;;;7.10;;
76336;SDS011;65157;50.082;18.178;2022-12-18T07:59:18;21.10;;;7.20;;
76336;SDS011;65157;50.082;18.178;2022-12-18T08:01:45;24.60;;;7.90;;
76336;SDS011;65157;50.082;18.178;2022-12-18T08:04:12;29.50;;;9.10;;
76336;SDS011;65157;50.082;18.178;2022-12-18T08:06:39;22.30;;;7.80;;
76336;SDS011;65157;50.082;18.178;2022-12-18T08:09:05;23.00;;;7.70;;
76336;SDS011;65157;50.082;18.178;2022-12-18T08:11:32;24.40;;;8.10;;
76336;SDS011;65157;50.082;18.178;2022-12-18T08:13:58;23.00;;;6.70;;
76336;SDS011;65157;50.082;18.178;2022-12-18T08:16:25;17.20;;;5.80;;
76336;SDS011;65157;50.082;18.178;2022-12-18T08:18:53;19.00;;;6.50;;
76336;SDS011;65157;50.082;18.178;2022-12-18T08:21:24;20.90;;;6.50;;
76336;SDS011;65157;50.082;18.178;2022-12-18T08:23:54;19.90;;;7.00;;
76336;SDS011;65157;50.082;18.178;2022-12-18T08:26:24;23.30;;;8.20;;
76336;SDS011;65157;50.082;18.178;2022-12-18T08:28:56;22.40;;;8.00;;
76336;SDS011;65157;50.082;18.178;2022-12-18T08:31:25;19.50;;;6.50;;
76336;SDS011;65157;50.082;18.178;2022-12-18T08:33:53;8.60;;;2.80;;
76336;SDS011;65157;50.082;18.178;2022-12-18T08:36:20;24.00;;;8.60;;
76336;SDS011;65157;50.082;18.178;2022-12-18T08:38:48;33.00;;;10.00;;
76336;SDS011;65157;50.082;18.178;2022-12-18T08:41:15;27.40;;;8.80;;
76336;SDS011;65157;50.082;18.178;2022-12-18T08:43:43;20.90;;;7.40;;
76336;SDS011;65157;50.082;18.178;2022-12-18T08:46:31;25.20;;;7.90;;
76336;SDS011;65157;50.082;18.178;2022-12-18T08:49:00;25.80;;;7.30;;
76336;SDS011;65157;50.082;18.178;2022-12-18T08:51:27;23.40;;;7.40;;
76336;SDS011;65157;50.082;18.178;2022-12-18T08:53:53;22.40;;;7.50;;
76336;SDS011;65157;50.082;18.178;2022-12-18T08:56:20;20.80;;;7.40;;
76336;SDS011;65157;50.082;18.178;2022-12-18T08:58:47;14.60;;;4.40;;
76336;SDS011;65157;50.082;18.178;2022-12-18T09:01:14;19.60;;;7.00;;
76336;SDS011;65157;50.082;18.178;2022-12-18T09:03:40;20.70;;;7.90;;
76336;SDS011;65157;50.082;18.178;2022-12-18T09:06:07;21.40;;;7.00;;
76336;SDS011;65157;50.082;18.178;2022-12-18T09:08:34;21.80;;;7.00;;
76336;SDS011;65157;50.082;18.178;2022-12-18T09:11:01;24.10;;;7.50;;
76336;SDS011;65157;50.082;18.178;2022-12-18T09:13:28;33.90;;;8.80;;
76336;SDS011;65157;50.082;18.178;2022-12-18T09:15:55;24.00;;;7.70;;
76336;SDS011;65157;50.082;18.178;2022-12-18T09:18:22;26.10;;;8.50;;
76336;SDS011;65157;50.082;18.178;2022-12-18T09:20:49;26.80;;;8.50;;
76336;SDS011;65157;50.082;18.178;2022-12-18T09:23:19;16.20;;;5.60;;
76336;SDS011;65157;50.082;18.178;2022-12-18T09:25:46;18.20;;;7.30;;
76336;SDS011;65157;50.082;18.178;2022-12-18T09:28:14;26.40;;;8.10;;
76336;SDS011;65157;50.082;18.178;2022-12-18T09:30:43;13.40;;;4.20;;
76336;SDS011;65157;50.082;18.178;2022-12-18T09:33:15;26.10;;;8.40;;
76336;SDS011;65157;50.082;18.178;2022-12-18T09:35:44;19.70;;;5.70;;
76336;SDS011;65157;50.082;18.178;2022-12-18T09:40:43;10.40;;;3.40;;
76336;SDS011;65157;50.082;18.178;2022-12-18T09:43:14;23.90;;;7.50;;
76336;SDS011;65157;50.082;18.178;2022-12-18T09:50:52;34.40;;;11.70;;
76336;SDS011;65157;50.082;18.178;2022-12-18T09:53:26;32.60;;;11.10;;
76336;SDS011;65157;50.082;18.178;2022-12-18T09:55:57;33.10;;;11.70;;
76336;SDS011;65157;50.082;18.178;2022-12-18T10:00:55;26.30;;;9.00;;
76336;SDS011;65157;50.082;18.178;2022-12-18T10:03:22;32.00;;;9.40;;
76336;SDS011;65157;50.082;18.178;2022-12-18T10:06:10;26.50;;;8.50;;
76336;SDS011;65157;50.082;18.178;2022-12-18T10:09:01;25.60;;;8.40;;
76336;SDS011;65157;50.082;18.178;2022-12-18T10:27:39;34.90;;;11.30;;
76336;SDS011;65157;50.082;18.178;2022-12-18T10:30:16;32.60;;;10.10;;
76336;SDS011;65157;50.082;18.178;2022-12-18T10:32:47;27.00;;;8.80;;
76336;SDS011;65157;50.082;18.178;2022-12-18T10:35:24;32.50;;;9.90;;
76336;SDS011;65157;50.082;18.178;2022-12-18T10:38:03;28.50;;;9.00;;
76336;SDS011;65157;50.082;18.178;2022-12-18T10:43:20;27.20;;;8.50;;
76336;SDS011;65157;50.082;18.178;2022-12-18T10:48:35;30.90;;;9.60;;
76336;SDS011;65157;50.082;18.178;2022-12-18T10:51:03;36.10;;;12.40;;
76336;SDS011;65157;50.082;18.178;2022-12-18T10:53:30;34.80;;;10.70;;
76336;SDS011;65157;50.082;18.178;2022-12-18T10:55:59;34.30;;;10.70;;
76336;SDS011;65157;50.082;18.178;2022-12-18T10:58:27;31.50;;;11.70;;
76336;SDS011;65157;50.082;18.178;2022-12-18T11:03:39;37.40;;;11.30;;
76336;SDS011;65157;50.082;18.178;2022-12-18T11:06:24;32.80;;;10.30;;
76336;SDS011;65157;50.082;18.178;2022-12-18T11:09:02;34.70;;;10.80;;
76336;SDS011;65157;50.082;18.178;2022-12-18T11:11:32;34.80;;;12.40;;
76336;SDS011;65157;50.082;18.178;2022-12-18T11:14:07;27.40;;;9.70;;
76336;SDS011;65157;50.082;18.178;2022-12-18T11:16:43;30.40;;;10.00;;
76336;SDS011;65157;50.082;18.178;2022-12-18T11:21:54;28.80;;;9.30;;
76336;SDS011;65157;50.082;18.178;2022-12-18T11:24:25;27.60;;;8.90;;
76336;SDS011;65157;50.082;18.178;2022-12-18T11:27:01;33.30;;;10.90;;
76336;SDS011;65157;50.082;18.178;2022-12-18T11:29:37;27.60;;;9.00;;
76336;SDS011;65157;50.082;18.178;2022-12-18T11:34:42;34.90;;;10.10;;
76336;SDS011;65157;50.082;18.178;2022-12-18T11:37:15;28.50;;;9.50;;
76336;SDS011;65157;50.082;18.178;2022-12-18T11:39:51;34.00;;;9.20;;
76336;SDS011;65157;50.082;18.178;2022-12-18T11:42:24;29.90;;;9.90;;
76336;SDS011;65157;50.082;18.178;2022-12-18T11:45:18;31.50;;;10.40;;
76336;SDS011;65157;50.082;18.178;2022-12-18T11:48:00;37.10;;;10.60;;
76336;SDS011;65157;50.082;18.178;2022-12-18T11:50:33;33.40;;;11.50;;
76336;SDS011;65157;50.082;18.178;2022-12-18T11:53:11;31.70;;;10.70;;
76336;SDS011;65157;50.082;18.178;2022-12-18T12:06:22;20.90;;;6.60;;
76336;SDS011;65157;50.082;18.178;2022-12-18T12:11:43;30.30;;;10.30;;
76336;SDS011;65157;50.082;18.178;2022-12-18T12:19:46;34.20;;;11.00;;
76336;SDS011;65157;50.082;18.178;2022-12-18T12:25:29;28.80;;;9.50;;
76336;SDS011;65157;50.082;18.178;2022-12-18T12:28:31;27.70;;;10.50;;
76336;SDS011;65157;50.082;18.178;2022-12-18T12:36:49;19.10;;;7.10;;
76336;SDS011;65157;50.082;18.178;2022-12-18T12:39:08;22.70;;;8.50;;
76336;SDS011;65157;50.082;18.178;2022-12-18T12:41:39;22.70;;;8.90;;
76336;SDS011;65157;50.082;18.178;2022-12-18T12:44:32;25.90;;;10.00;;
76336;SDS011;65157;50.082;18.178;2022-12-18T12:47:09;26.40;;;9.40;;
76336;SDS011;65157;50.082;18.178;2022-12-18T12:49:42;28.50;;;8.90;;
76336;SDS011;65157;50.082;18.178;2022-12-18T12:52:17;20.10;;;8.60;;
76336;SDS011;65157;50.082;18.178;2022-12-18T12:54:54;38.10;;;12.90;;
76336;SDS011;65157;50.082;18.178;2022-12-18T12:57:24;32.90;;;12.10;;
76336;SDS011;65157;50.082;18.178;2022-12-18T13:02:42;38.50;;;13.10;;
76336;SDS011;65157;50.082;18.178;2022-12-18T13:08:02;30.30;;;11.20;;
76336;SDS011;65157;50.082;18.178;2022-12-18T13:10:34;27.40;;;10.90;;
76336;SDS011;65157;50.082;18.178;2022-12-18T13:13:14;38.40;;;13.90;;
76336;SDS011;65157;50.082;18.178;2022-12-18T13:15:45;37.10;;;13.40;;
76336;SDS011;65157;50.082;18.178;2022-12-18T13:18:19;34.70;;;12.50;;
76336;SDS011;65157;50.082;18.178;2022-12-18T13:23:25;29.50;;;10.80;;
76336;SDS011;65157;50.082;18.178;2022-12-18T13:25:58;28.20;;;10.90;;
76336;SDS011;65157;50.082;18.178;2022-12-18T13:31:12;31.20;;;10.70;;
76336;SDS011;65157;50.082;18.178;2022-12-18T13:41:41;27.70;;;9.60;;
76336;SDS011;65157;50.082;18.178;2022-12-18T13:44:25;24.10;;;9.40;;
76336;SDS011;65157;50.082;18.178;2022-12-18T13:47:45;33.80;;;11.80;;
76336;SDS011;65157;50.082;18.178;2022-12-18T13:50:12;32.50;;;11.00;;
76336;SDS011;65157;50.082;18.178;2022-12-18T13:52:52;36.40;;;11.50;;
76336;SDS011;65157;50.082;18.178;2022-12-18T13:55:19;33.70;;;11.40;;
76336;SDS011;65157;50.082;18.178;2022-12-18T13:57:48;25.10;;;10.00;;
76336;SDS011;65157;50.082;18.178;2022-12-18T14:02:45;34.10;;;11.30;;
76336;SDS011;65157;50.082;18.178;2022-12-18T14:07:52;32.90;;;10.50;;
76336;SDS011;65157;50.082;18.178;2022-12-18T14:10:21;33.90;;;12.60;;
76336;SDS011;65157;50.082;18.178;2022-12-18T14:12:48;38.10;;;11.70;;
76336;SDS011;65157;50.082;18.178;2022-12-18T14:17:53;41.00;;;14.40;;
76336;SDS011;65157;50.082;18.178;2022-12-18T14:20:20;38.10;;;14.10;;
76336;SDS011;65157;50.082;18.178;2022-12-18T14:22:49;42.20;;;14.80;;
76336;SDS011;65157;50.082;18.178;2022-12-18T14:25:17;40.40;;;13.60;;
76336;SDS011;65157;50.082;18.178;2022-12-18T14:27:47;41.60;;;15.50;;
76336;SDS011;65157;50.082;18.178;2022-12-18T14:30:38;49.50;;;16.30;;
76336;SDS011;65157;50.082;18.178;2022-12-18T14:33:10;44.60;;;16.10;;
76336;SDS011;65157;50.082;18.178;2022-12-18T14:35:40;47.40;;;17.90;;
76336;SDS011;65157;50.082;18.178;2022-12-18T14:38:09;48.50;;;18.30;;
76336;SDS011;65157;50.082;18.178;2022-12-18T14:40:38;58.50;;;17.40;;
76336;SDS011;65157;50.082;18.178;2022-12-18T14:43:04;53.20;;;17.20;;
76336;SDS011;65157;50.082;18.178;2022-12-18T14:45:35;55.20;;;17.70;;
76336;SDS011;65157;50.082;18.178;2022-12-18T14:48:08;56.00;;;18.70;;
76336;SDS011;65157;50.082;18.178;2022-12-18T14:50:40;52.20;;;16.30;;
76336;SDS011;65157;50.082;18.178;2022-12-18T14:53:18;52.90;;;16.70;;
76336;SDS011;65157;50.082;18.178;2022-12-18T14:55:47;41.90;;;14.20;;
76336;SDS011;65157;50.082;18.178;2022-12-18T14:58:15;45.80;;;16.20;;
76336;SDS011;65157;50.082;18.178;2022-12-18T15:00:44;37.70;;;15.80;;
76336;SDS011;65157;50.082;18.178;2022-12-18T15:03:12;65.00;;;21.40;;
76336;SDS011;65157;50.082;18.178;2022-12-18T15:05:45;87.40;;;26.20;;
76336;SDS011;65157;50.082;18.178;2022-12-18T15:08:29;76.60;;;24.00;;
76336;SDS011;65157;50.082;18.178;2022-12-18T15:11:00;75.70;;;24.20;;
76336;SDS011;65157;50.082;18.178;2022-12-18T15:13:27;69.60;;;22.10;;
76336;SDS011;65157;50.082;18.178;2022-12-18T15:15:54;82.60;;;24.70;;
76336;SDS011;65157;50.082;18.178;2022-12-18T15:18:29;79.40;;;25.30;;
76336;SDS011;65157;50.082;18.178;2022-12-18T15:21:00;68.70;;;22.20;;
76336;SDS011;65157;50.082;18.178;2022-12-18T15:26:03;58.60;;;20.10;;
76336;SDS011;65157;50.082;18.178;2022-12-18T15:28:36;54.30;;;17.00;;
76336;SDS011;65157;50.082;18.178;2022-12-18T15:34:05;62.70;;;18.50;;
76336;SDS011;65157;50.082;18.178;2022-12-18T15:36:32;64.60;;;21.00;;
76336;SDS011;65157;50.082;18.178;2022-12-18T15:39:02;74.10;;;21.00;;
76336;SDS011;65157;50.082;18.178;2022-12-18T15:41:31;71.30;;;24.30;;
76336;SDS011;65157;50.082;18.178;2022-12-18T15:43:59;84.70;;;26.40;;
76336;SDS011;65157;50.082;18.178;2022-12-18T15:46:26;75.30;;;26.00;;
76336;SDS011;65157;50.082;18.178;2022-12-18T15:48:54;70.00;;;24.90;;
76336;SDS011;65157;50.082;18.178;2022-12-18T15:51:26;64.80;;;24.60;;
76336;SDS011;65157;50.082;18.178;2022-12-18T15:53:56;88.80;;;27.80;;
76336;SDS011;65157;50.082;18.178;2022-12-18T15:56:26;90.40;;;28.20;;
76336;SDS011;65157;50.082;18.178;2022-12-18T15:59:16;98.60;;;31.60;;
76336;SDS011;65157;50.082;18.178;2022-12-18T16:01:45;101.20;;;33.00;;
76336;SDS011;65157;50.082;18.178;2022-12-18T16:04:15;90.80;;;28.20;;
76336;SDS011;65157;50.082;18.178;2022-12-18T16:06:46;85.20;;;24.80;;
76336;SDS011;65157;50.082;18.178;2022-12-18T16:09:14;76.50;;;25.00;;
76336;SDS011;65157;50.082;18.178;2022-12-18T16:11:41;69.60;;;24.50;;
76336;SDS011;65157;50.082;18.178;2022-12-18T16:14:15;74.70;;;24.40;;
76336;SDS011;65157;50.082;18.178;2022-12-18T16:16:53;69.30;;;23.20;;
76336;SDS011;65157;50.082;18.178;2022-12-18T16:19:21;58.80;;;19.90;;
76336;SDS011;65157;50.082;18.178;2022-12-18T16:21:49;63.80;;;19.50;;
76336;SDS011;65157;50.082;18.178;2022-12-18T16:24:18;69.20;;;21.30;;
76336;SDS011;65157;50.082;18.178;2022-12-18T16:26:50;87.40;;;28.70;;
76336;SDS011;65157;50.082;18.178;2022-12-18T16:29:21;85.00;;;27.60;;
76336;SDS011;65157;50.082;18.178;2022-12-18T16:32:05;70.10;;;26.60;;
76336;SDS011;65157;50.082;18.178;2022-12-18T16:34:33;80.60;;;26.10;;
76336;SDS011;65157;50.082;18.178;2022-12-18T16:37:02;86.50;;;28.90;;
76336;SDS011;65157;50.082;18.178;2022-12-18T16:39:31;87.20;;;28.80;;
76336;SDS011;65157;50.082;18.178;2022-12-18T16:41:59;121.00;;;39.00;;
76336;SDS011;65157;50.082;18.178;2022-12-18T16:44:32;125.60;;;41.30;;
76336;SDS011;65157;50.082;18.178;2022-12-18T16:47:01;120.80;;;39.40;;
76336;SDS011;65157;50.082;18.178;2022-12-18T16:49:29;143.90;;;43.10;;